Time;durP1;ratioP1;P1;durP2;ratioP2;P2;SDS_P1;SDS_P2;PMS_P1;PMS_P2;Temp;Humidity;BMP_temperature;BMP_pressure;BME280_temperature;BME280_humidity;BME280_pressure;Samples;Min_cycle;Max_cycle;Signal;HPM_P1;HPM_P2
2023/08/11 00:04:44;;;;;;;5.28;4.72;;;;;;;;;;10231393;28;21103;-84
2023/08/11 00:09:48;;;;;;;5.93;5.43;;;;;;;;;;10243594;28;20433;-84
2023/08/11 00:14:49;;;;;;;6.37;5.00;;;;;;;;;;10238485;28;20046;-85
2023/08/11 00:19:49;;;;;;;5.32;4.80;;;;;;;;;;10219544;28;20043;-84
2023/08/11 00:24:50;;;;;;;4.60;4.20;;;;;;;;;;10240370;28;20111;-84
2023/08/11 00:29:51;;;;;;;5.93;5.23;;;;;;;;;;10239784;28;20086;-87
2023/08/11 00:34:55;;;;;;;6.45;4.82;;;;;;;;;;10217617;28;20245;-84
2023/08/11 00:39:58;;;;;;;5.80;5.17;;;;;;;;;;10239302;28;20111;-85
2023/08/11 00:45:00;;;;;;;;;;;;;;;;;;10218914;28;20751;-84
2023/08/11 00:50:02;;;;;;;6.63;5.18;;;;;;;;;;10240569;28;19926;-84
2023/08/11 00:55:02;;;;;;;5.70;5.20;;;;;;;;;;10236469;28;20059;-84
2023/08/11 01:00:14;;;;;;;5.85;4.75;;;;;;;;;;10234555;28;20170;-84
2023/08/11 01:05:16;;;;;;;7.10;4.88;;;;;;;;;;10236262;28;20070;-84
2023/08/11 01:10:24;;;;;;;7.95;5.75;;;;;;;;;;10234133;28;20043;-83
2023/08/11 01:15:34;;;;;;;10.52;5.72;;;;;;;;;;10226194;28;20051;-83
2023/08/11 01:20:35;;;;;;;6.05;5.45;;;;;;;;;;10257600;28;20047;-84
2023/08/11 01:25:38;;;;;;;6.10;5.50;;;;;;;;;;10243084;28;20127;-82
2023/08/11 01:30:39;;;;;;;8.37;5.30;;;;;;;;;;10238625;28;20051;-84
2023/08/11 01:35:41;;;;;;;6.35;5.05;;;;;;;;;;10247215;28;20508;-86
2023/08/11 01:40:42;;;;;;;5.25;4.75;;;;;;;;;;10244619;28;20035;-85
2023/08/11 01:45:44;;;;;;;5.50;5.00;;;;;;;;;;10216305;28;20419;-86
2023/08/11 01:50:54;;;;;;;6.22;5.60;;;;;;;;;;10241109;28;20121;-85
2023/08/11 01:55:59;;;;;;;7.10;5.25;;;;;;;;;;10242913;28;20113;-86
2023/08/11 02:01:02;;;;;;;6.15;5.47;;;;;;;;;;10232999;28;20118;-84
2023/08/11 02:06:04;;;;;;;8.15;5.35;;;;;;;;;;10247695;28;20078;-85
2023/08/11 02:11:06;;;;;;;;;;;;;;;;;;10245371;28;20043;-87
2023/08/11 02:16:07;;;;;;;6.32;4.90;;;;;;;;;;10231577;28;19918;-88
2023/08/11 02:21:07;;;;;;;6.13;5.53;;;;;;;;;;10254888;28;20115;-86
2023/08/11 02:26:08;;;;;;;6.20;5.50;;;;;;;;;;10242872;28;20643;-84
2023/08/11 02:31:10;;;;;;;;;;;;;;;;;;10246174;28;20074;-86
2023/08/11 02:36:14;;;;;;;6.05;5.45;;;;;;;;;;10248835;28;19919;-84
2023/08/11 02:41:15;;;;;;;6.43;5.53;;;;;;;;;;10238475;28;20152;-86
2023/08/11 02:46:22;;;;;;;5.82;5.05;;;;;;;;;;10241824;28;20065;-85
2023/08/11 02:51:24;;;;;;;8.75;6.00;;;;;;;;;;10237960;28;20052;-86
2023/08/11 02:56:25;;;;;;;5.97;5.38;;;;;;;;;;10243785;28;20114;-86
2023/08/11 03:01:28;;;;;;;7.15;5.30;;;;;;;;;;10200787;28;20085;-86
2023/08/11 03:06:34;;;;;;;7.13;5.45;;;;;;;;;;10237164;28;20074;-85
2023/08/11 03:11:34;;;;;;;6.18;5.57;;;;;;;;;;10233452;28;20048;-87
2023/08/11 03:16:45;;;;;;;5.65;5.05;;;;;;;;;;10220324;28;20093;-87
2023/08/11 03:21:46;;;;;;;7.30;6.32;;;;;;;;;;10223751;28;20051;-88
2023/08/11 03:26:48;;;;;;;6.55;5.43;;;;;;;;;;10229507;28;20063;-85
2023/08/11 03:31:52;;;;;;;6.65;5.35;;;;;;;;;;10235917;28;20382;-84
2023/08/11 03:36:53;;;;;;;6.63;5.13;;;;;;;;;;10223589;28;20048;-85
2023/08/11 03:41:56;;;;;;;6.30;5.30;;;;;;;;;;10245039;28;20048;-87
2023/08/11 03:46:59;;;;;;;6.10;5.50;;;;;;;;;;10241824;28;20153;-85
2023/08/11 03:52:01;;;;;;;6.22;5.63;;;;;;;;;;10231706;28;20130;-84
2023/08/11 03:57:03;;;;;;;8.03;5.43;;;;;;;;;;10232582;28;20061;-85
2023/08/11 04:02:03;;;;;;;6.38;5.78;;;;;;;;;;10238872;28;20294;-85
2023/08/11 04:07:05;;;;;;;7.82;5.80;;;;;;;;;;10231979;28;20654;-84
2023/08/11 04:12:06;;;;;;;7.43;6.07;;;;;;;;;;10238248;28;20055;-89
2023/08/11 04:17:08;;;;;;;5.88;5.35;;;;;;;;;;10210623;28;20402;-84
2023/08/11 04:22:09;;;;;;;6.93;6.15;;;;;;;;;;10217918;28;20048;-84
2023/08/11 04:27:12;;;;;;;6.00;4.93;;;;;;;;;;10211476;28;20051;-85
2023/08/11 04:32:14;;;;;;;7.93;5.28;;;;;;;;;;10247202;28;20039;-84
2023/08/11 04:37:18;;;;;;;7.38;5.97;;;;;;;;;;10218142;28;20823;-86
2023/08/11 04:42:19;;;;;;;7.78;6.10;;;;;;;;;;10235152;28;20110;-84
2023/08/11 04:47:22;;;;;;;6.82;6.13;;;;;;;;;;10243496;28;20059;-85
2023/08/11 04:52:26;;;;;;;7.30;6.25;;;;;;;;;;10201534;28;20047;-84
2023/08/11 04:57:28;;;;;;;6.80;5.32;;;;;;;;;;10213542;28;20059;-84
2023/08/11 05:02:29;;;;;;;6.78;5.70;;;;;;;;;;10220908;28;20143;-85
2023/08/11 05:07:30;;;;;;;7.70;6.28;;;;;;;;;;10235659;28;20489;-84
2023/08/11 05:12:33;;;;;;;7.63;6.15;;;;;;;;;;10232425;28;20054;-84
2023/08/11 05:17:35;;;;;;;6.70;5.68;;;;;;;;;;10237525;28;20055;-85
2023/08/11 05:22:37;;;;;;;6.63;5.60;;;;;;;;;;10231944;28;20042;-85
2023/08/11 05:27:39;;;;;;;6.63;5.30;;;;;;;;;;10230491;28;20102;-87
2023/08/11 05:32:39;;;;;;;6.10;5.05;;;;;;;;;;10232776;28;21152;-86
2023/08/11 05:37:41;;;;;;;5.47;4.93;;;;;;;;;;10237468;28;20114;-84
2023/08/11 05:42:42;;;;;;;5.60;4.80;;;;;;;;;;10227395;28;20047;-88
2023/08/11 05:47:42;;;;;;;7.25;5.13;;;;;;;;;;10233716;28;20071;-86
2023/08/11 05:52:43;;;;;;;5.47;4.93;;;;;;;;;;10231094;28;20126;-86
2023/08/11 05:57:48;;;;;;;4.95;4.45;;;;;;;;;;10213490;28;20362;-87
2023/08/11 06:02:48;;;;;;;5.80;4.70;;;;;;;;;;10236833;28;20508;-86
2023/08/11 06:07:50;;;;;;;6.68;5.35;;;;;;;;;;10230351;28;20047;-85
2023/08/11 06:12:51;;;;;;;6.07;4.95;;;;;;;;;;10233137;28;20519;-84
2023/08/11 06:17:51;;;;;;;5.13;4.43;;;;;;;;;;10240327;28;20126;-86
2023/08/11 06:22:52;;;;;;;6.10;4.53;;;;;;;;;;10243630;28;20047;-84
2023/08/11 06:27:52;;;;;;;5.32;4.70;;;;;;;;;;10268056;28;20046;-84
2023/08/11 06:32:55;;;;;;;5.45;4.88;;;;;;;;;;10236575;28;20050;-86
2023/08/11 06:37:57;;;;;;;5.13;4.55;;;;;;;;;;10236907;28;20047;-85
2023/08/11 06:42:57;;;;;;;6.70;4.95;;;;;;;;;;10250030;28;20141;-86
2023/08/11 06:47:58;;;;;;;5.20;4.70;;;;;;;;;;10249253;28;20079;-85
2023/08/11 06:52:59;;;;;;;5.13;4.63;;;;;;;;;;10216787;28;20070;-85
2023/08/11 06:58:05;;;;;;;5.67;4.70;;;;;;;;;;10249614;28;20137;-86
2023/08/11 07:03:06;;;;;;;5.93;4.07;;;;;;;;;;10220932;28;20307;-86
2023/08/11 07:08:06;;;;;;;4.67;4.20;;;;;;;;;;10235471;28;20062;-85
2023/08/11 07:13:07;;;;;;;5.25;4.72;;;;;;;;;;10243138;28;20039;-85
2023/08/11 07:18:09;;;;;;;4.07;3.73;;;;;;;;;;10237140;28;20462;-85
2023/08/11 07:23:10;;;;;;;4.80;4.40;;;;;;;;;;10239010;28;20409;-86
2023/08/11 07:28:42;;;;;;;4.20;3.80;;;;;;;;;;10271829;28;20069;-86
2023/08/11 07:34:01;;;;;;;4.05;3.65;;;;;;;;;;10252794;28;20067;-85
2023/08/11 07:39:09;;;;;;;5.63;3.97;;;;;;;;;;10221946;28;20134;-85
2023/08/11 07:44:11;;;;;;;4.28;3.60;;;;;;;;;;10240309;28;20050;-85
2023/08/11 07:49:33;;;;;;;5.38;3.75;;;;;;;;;;10229579;28;20051;-87
2023/08/11 07:54:35;;;;;;;5.07;4.03;;;;;;;;;;10243814;28;20063;-86
2023/08/11 07:59:38;;;;;;;4.78;3.83;;;;;;;;;;10224765;28;20043;-86
2023/08/11 08:04:38;;;;;;;4.20;3.80;;;;;;;;;;10250111;28;20059;-87
2023/08/11 08:09:42;;;;;;;6.07;4.00;;;;;;;;;;10248495;28;20321;-85
2023/08/11 08:14:43;;;;;;;3.65;3.25;;;;;;;;;;10235409;28;20078;-89
2023/08/11 08:20:18;;;;;;;3.90;3.38;;;;;;;;;;10256561;28;20467;-87
2023/08/11 08:31:13;;;;;;;4.82;3.55;;;;;;;;;;10267220;28;20042;-86
2023/08/11 08:42:23;;;;;;;4.15;3.03;;;;;;;;;;10273404;28;20055;-86
2023/08/11 08:47:26;;;;;;;4.15;3.10;;;;;;;;;;10253854;28;20063;-87
2023/08/11 09:04:16;;;;;;;5.25;3.70;;;;;;;;;;10267996;28;20055;-86
2023/08/11 09:09:32;;;;;;;5.93;3.10;;;;;;;;;;10239477;28;20429;-87
2023/08/11 09:25:34;;;;;;;3.50;2.92;;;;;;;;;;10277972;28;20062;-86
2023/08/11 09:42:25;;;;;;;2.63;2.42;;;;;;;;;;10277453;28;20059;-86
2023/08/11 09:47:27;;;;;;;3.08;2.60;;;;;;;;;;10268112;28;20094;-86
2023/08/11 09:52:54;;;;;;;3.17;2.88;;;;;;;;;;10265301;28;20047;-86
2023/08/11 09:58:03;;;;;;;3.00;2.70;;;;;;;;;;10252583;28;20040;-85
2023/08/11 10:03:11;;;;;;;3.40;2.97;;;;;;;;;;10259068;28;20066;-87
2023/08/11 10:08:34;;;;;;;3.30;2.55;;;;;;;;;;10265453;28;20039;-86
2023/08/11 10:13:37;;;;;;;3.00;2.70;;;;;;;;;;10290612;28;20043;-86
2023/08/11 10:18:42;;;;;;;4.68;2.58;;;;;;;;;;10253281;28;20046;-85
2023/08/11 10:23:42;;;;;;;3.53;2.60;;;;;;;;;;10260795;28;20054;-86
2023/08/11 10:28:47;;;;;;;3.60;2.78;;;;;;;;;;10249871;28;20067;-89
2023/08/11 10:39:09;;;;;;;3.30;2.83;;;;;;;;;;10277458;28;20437;-86
2023/08/11 10:44:19;;;;;;;4.68;2.83;;;;;;;;;;10240494;28;20030;-88
2023/08/11 10:54:34;;;;;;;3.30;2.78;;;;;;;;;;10259684;28;20028;-88
2023/08/11 11:10:12;;;;;;;4.20;2.60;;;;;;;;;;10921566;23;20059;-84
2023/08/11 11:15:13;;;;;;;4.20;2.70;;;;;;;;;;10184360;28;20055;-86
2023/08/11 11:20:16;;;;;;;3.13;2.67;;;;;;;;;;10219678;29;20046;-88
2023/08/11 11:25:32;;;;;;;2.90;2.50;;;;;;;;;;10231708;29;20140;-89
2023/08/11 11:41:12;;;;;;;2.85;2.20;;;;;;;;;;10298858;28;20047;-88
2023/08/11 11:51:29;;;;;;;4.40;2.70;;;;;;;;;;10290561;28;20070;-86
2023/08/11 12:01:45;;;;;;;2.97;2.67;;;;;;;;;;10281761;28;20051;-87
2023/08/11 12:06:47;;;;;;;2.78;2.58;;;;;;;;;;10269317;23;20079;-87
2023/08/11 12:11:55;;;;;;;3.80;2.33;;;;;;;;;;10218523;28;20039;-88
2023/08/11 12:16:57;;;;;;;4.43;2.70;;;;;;;;;;10193722;28;20055;-86
2023/08/11 12:22:04;;;;;;;3.00;2.70;;;;;;;;;;10214675;29;20040;-85
2023/08/11 12:27:16;;;;;;;3.00;2.65;;;;;;;;;;10213002;28;20048;-86
2023/08/11 12:32:17;;;;;;;3.55;2.80;;;;;;;;;;10265143;28;20085;-87
2023/08/11 12:37:18;;;;;;;2.75;2.50;;;;;;;;;;10321235;28;20038;-89
2023/08/11 12:42:19;;;;;;;4.27;3.00;;;;;;;;;;10299313;28;20086;-86
2023/08/11 12:47:23;;;;;;;2.83;2.63;;;;;;;;;;10254369;28;20058;-87
2023/08/11 12:52:24;;;;;;;2.85;2.65;;;;;;;;;;10280927;28;20116;-87
2023/08/11 12:57:33;;;;;;;2.73;2.53;;;;;;;;;;10248763;28;20051;-87
2023/08/11 13:02:37;;;;;;;2.83;2.63;;;;;;;;;;10279568;28;20115;-88
2023/08/11 13:07:43;;;;;;;3.55;3.00;;;;;;;;;;10227321;23;20069;-87
2023/08/11 13:12:44;;;;;;;2.97;2.70;;;;;;;;;;10207057;29;20122;-88
2023/08/11 13:17:45;;;;;;;3.22;2.92;;;;;;;;;;10214165;29;20063;-86
2023/08/11 13:22:47;;;;;;;2.70;2.50;;;;;;;;;;10227448;29;20113;-86
2023/08/11 13:27:51;;;;;;;4.30;2.70;;;;;;;;;;10230016;28;20067;-86
2023/08/11 13:32:54;;;;;;;3.08;2.55;;;;;;;;;;10219166;28;20039;-86
2023/08/11 13:37:56;;;;;;;3.78;2.90;;;;;;;;;;10270939;28;20090;-87
2023/08/11 13:43:05;;;;;;;3.70;3.13;;;;;;;;;;10251625;28;20172;-87
2023/08/11 13:48:06;;;;;;;2.92;2.63;;;;;;;;;;10257948;28;20043;-87
2023/08/11 13:53:11;;;;;;;2.73;2.40;;;;;;;;;;10250810;28;20038;-88
2023/08/11 13:58:31;;;;;;;3.65;2.83;;;;;;;;;;10210737;28;20063;-88
2023/08/11 14:03:35;;;;;;;3.70;2.87;;;;;;;;;;10241537;28;20040;-88
2023/08/11 14:08:36;;;;;;;3.15;2.85;;;;;;;;;;10235543;29;20135;-86
2023/08/11 14:13:38;;;;;;;3.97;3.03;;;;;;;;;;10206569;28;20231;-87
2023/08/11 14:18:43;;;;;;;2.63;2.40;;;;;;;;;;10219859;29;20103;-86
2023/08/11 14:23:46;;;;;;;3.08;2.78;;;;;;;;;;10201242;29;20110;-86
2023/08/11 14:28:51;;;;;;;2.28;2.08;;;;;;;;;;10203378;29;20060;-86
2023/08/11 14:34:03;;;;;;;2.50;2.30;;;;;;;;;;10235535;28;20128;-86
2023/08/11 14:39:05;;;;;;;3.25;2.80;;;;;;;;;;10244467;29;20154;-87
2023/08/11 14:44:08;;;;;;;2.78;2.58;;;;;;;;;;10235284;29;20393;-85
2023/08/11 14:49:14;;;;;;;2.40;2.20;;;;;;;;;;10208261;29;20060;-85
2023/08/11 14:54:24;;;;;;;2.30;2.10;;;;;;;;;;10239419;28;20052;-86
2023/08/11 14:59:26;;;;;;;3.13;2.83;;;;;;;;;;10239077;28;20063;-86
2023/08/11 15:04:26;;;;;;;2.90;2.60;;;;;;;;;;10233078;23;20075;-87
2023/08/11 15:09:30;;;;;;;4.50;2.60;;;;;;;;;;10175345;29;20063;-85
2023/08/11 15:14:34;;;;;;;2.70;2.30;;;;;;;;;;10171341;29;20047;-86
2023/08/11 15:19:35;;;;;;;2.95;2.65;;;;;;;;;;10187270;28;20047;-86
2023/08/11 15:24:36;;;;;;;4.23;2.60;;;;;;;;;;10258392;28;20129;-86
2023/08/11 15:29:36;;;;;;;3.77;2.67;;;;;;;;;;10249930;28;20064;-87
2023/08/11 15:34:40;;;;;;;2.80;2.30;;;;;;;;;;10246737;28;20043;-85
2023/08/11 15:39:43;;;;;;;4.38;2.33;;;;;;;;;;10250843;28;20706;-87
2023/08/11 15:44:45;;;;;;;3.23;2.80;;;;;;;;;;10259493;28;20086;-85
2023/08/11 15:49:49;;;;;;;3.63;2.92;;;;;;;;;;10254702;28;20382;-85
2023/08/11 15:54:52;;;;;;;2.70;2.20;;;;;;;;;;10234868;28;20127;-88
2023/08/11 16:00:26;;;;;;;3.15;2.42;;;;;;;;;;10225935;28;20067;-84
2023/08/11 16:05:34;;;;;;;3.55;2.58;;;;;;;;;;10274169;28;20052;-87
2023/08/11 16:10:57;;;;;;;2.95;2.65;;;;;;;;;;10266519;28;20051;-87
2023/08/11 16:16:08;;;;;;;2.80;2.50;;;;;;;;;;10256755;28;21241;-88
2023/08/11 16:21:09;;;;;;;2.50;2.15;;;;;;;;;;10261117;28;20043;-85
2023/08/11 16:26:12;;;;;;;4.20;3.63;;;;;;;;;;10245963;28;20051;-85
2023/08/11 16:31:18;;;;;;;3.63;2.78;;;;;;;;;;10264339;28;20052;-86
2023/08/11 16:36:34;;;;;;;2.55;2.33;;;;;;;;;;10242971;28;20062;-87
2023/08/11 16:41:42;;;;;;;3.40;3.08;;;;;;;;;;10234764;28;20047;-85
2023/08/11 16:46:46;;;;;;;2.88;2.53;;;;;;;;;;10234454;28;20107;-84
2023/08/11 16:51:47;;;;;;;2.72;2.30;;;;;;;;;;10232136;28;20043;-85
2023/08/11 16:56:48;;;;;;;2.70;2.27;;;;;;;;;;10197183;28;20122;-86
2023/08/11 17:02:22;;;;;;;2.50;2.30;;;;;;;;;;10228851;28;20028;-86
2023/08/11 17:13:08;;;;;;;2.85;2.58;;;;;;;;;;10254437;28;20043;-85
2023/08/11 17:18:08;;;;;;;2.97;2.60;;;;;;;;;;10255935;28;20043;-83
2023/08/11 17:23:09;;;;;;;2.80;2.47;;;;;;;;;;10270842;28;20057;-87
2023/08/11 17:28:09;;;;;;;3.20;2.70;;;;;;;;;;10258301;28;20051;-85
2023/08/11 17:33:12;;;;;;;2.90;2.70;;;;;;;;;;10269404;28;20590;-85
2023/08/11 17:38:14;;;;;;;3.17;2.70;;;;;;;;;;10256185;28;20086;-85
2023/08/11 17:43:15;;;;;;;3.40;2.73;;;;;;;;;;10253886;28;20071;-85
2023/08/11 17:48:17;;;;;;;4.60;3.08;;;;;;;;;;10276408;28;20091;-85
2023/08/11 17:53:22;;;;;;;4.00;3.00;;;;;;;;;;10275449;28;20066;-86
2023/08/11 17:58:47;;;;;;;3.10;2.80;;;;;;;;;;10290058;28;20122;-87
2023/08/11 18:03:48;;;;;;;3.28;2.88;;;;;;;;;;10255822;28;20056;-83
2023/08/11 18:08:51;;;;;;;3.35;3.00;;;;;;;;;;10232991;28;20523;-85
2023/08/11 18:13:55;;;;;;;3.37;3.07;;;;;;;;;;10257357;28;20154;-84
2023/08/11 18:19:07;;;;;;;3.40;3.10;;;;;;;;;;10224931;28;20481;-85
2023/08/11 18:24:16;;;;;;;3.58;3.00;;;;;;;;;;10259621;28;20143;-85
2023/08/11 18:29:50;;;;;;;6.18;4.70;;;;;;;;;;10250148;28;20348;-84
2023/08/11 18:34:56;;;;;;;5.53;4.72;;;;;;;;;;10235827;28;20122;-84
2023/08/11 18:39:58;;;;;;;7.43;4.68;;;;;;;;;;10241591;28;20105;-84
2023/08/11 18:44:59;;;;;;;5.00;4.57;;;;;;;;;;10244076;28;20052;-83
2023/08/11 18:50:04;;;;;;;5.27;4.73;;;;;;;;;;10245224;28;20523;-86
2023/08/11 18:55:10;;;;;;;7.15;6.45;;;;;;;;;;10258798;28;20336;-88
2023/08/11 19:00:14;;;;;;;8.05;6.70;;;;;;;;;;10243184;28;20429;-83
2023/08/11 19:05:16;;;;;;;7.47;5.72;;;;;;;;;;10240580;28;20401;-85
2023/08/11 19:10:18;;;;;;;7.28;5.60;;;;;;;;;;10238083;28;20066;-87
2023/08/11 19:15:18;;;;;;;7.13;4.80;;;;;;;;;;10236505;28;20074;-85
2023/08/11 19:20:24;;;;;;;4.45;4.05;;;;;;;;;;10225595;28;20302;-83
2023/08/11 19:25:25;;;;;;;5.63;4.90;;;;;;;;;;10243191;28;20060;-84
2023/08/11 19:30:25;;;;;;;4.97;4.57;;;;;;;;;;10199018;28;20083;-84
2023/08/11 19:35:39;;;;;;;;;;;;;;;;;;10210549;28;20072;-86
2023/08/11 19:40:45;;;;;;;5.70;4.53;;;;;;;;;;10240780;28;19934;-83
2023/08/11 19:45:54;;;;;;;5.55;5.05;;;;;;;;;;10239933;28;20323;-87
2023/08/11 19:50:57;;;;;;;5.55;5.05;;;;;;;;;;10269098;28;20064;-86
2023/08/11 19:56:01;;;;;;;6.07;5.47;;;;;;;;;;10235091;28;20085;-85
2023/08/11 20:01:07;;;;;;;6.88;5.32;;;;;;;;;;10218277;28;21130;-84
2023/08/11 20:06:17;;;;;;;5.25;4.85;;;;;;;;;;10244912;28;20055;-86
2023/08/11 20:11:19;;;;;;;5.40;4.90;;;;;;;;;;10243800;28;20059;-85
2023/08/11 20:16:50;;;;;;;6.00;5.40;;;;;;;;;;10247313;28;20047;-87
2023/08/11 20:22:19;;;;;;;6.43;5.22;;;;;;;;;;10243110;28;20054;-85
2023/08/11 20:27:23;;;;;;;5.88;5.00;;;;;;;;;;10244007;28;20062;-86
2023/08/11 20:32:47;;;;;;;6.82;5.20;;;;;;;;;;10219262;28;20070;-88
2023/08/11 20:37:47;;;;;;;5.88;5.32;;;;;;;;;;10238486;28;20574;-86
2023/08/11 20:42:48;;;;;;;6.40;5.77;;;;;;;;;;10236321;28;20165;-86
2023/08/11 20:47:53;;;;;;;6.35;5.75;;;;;;;;;;10231294;28;20063;-84
2023/08/11 20:52:55;;;;;;;7.65;6.53;;;;;;;;;;10235186;28;20694;-85
2023/08/11 20:57:57;;;;;;;7.47;6.10;;;;;;;;;;10231151;28;20046;-85
2023/08/11 21:03:01;;;;;;;6.68;6.18;;;;;;;;;;10234586;28;20044;-85
2023/08/11 21:08:02;;;;;;;7.47;6.67;;;;;;;;;;10244754;28;20051;-85
2023/08/11 21:13:03;;;;;;;7.75;6.97;;;;;;;;;;10231044;28;20305;-86
2023/08/11 21:18:05;;;;;;;7.93;6.47;;;;;;;;;;10224267;28;20059;-83
2023/08/11 21:23:10;;;;;;;7.10;6.40;;;;;;;;;;10208846;28;20040;-83
2023/08/11 21:28:11;;;;;;;7.93;7.13;;;;;;;;;;10213709;28;20142;-85
2023/08/11 21:33:15;;;;;;;6.63;6.03;;;;;;;;;;10232933;28;20492;-84
2023/08/11 21:38:15;;;;;;;6.30;5.68;;;;;;;;;;10232610;28;20048;-84
2023/08/11 21:43:17;;;;;;;6.55;5.95;;;;;;;;;;10221066;28;20051;-85
2023/08/11 21:48:18;;;;;;;5.78;5.22;;;;;;;;;;10222204;28;20539;-86
2023/08/11 21:53:18;;;;;;;5.50;5.00;;;;;;;;;;10245365;28;20123;-85
2023/08/11 21:58:19;;;;;;;5.50;4.95;;;;;;;;;;10205304;28;20044;-84
2023/08/11 22:03:28;;;;;;;6.35;4.70;;;;;;;;;;10226939;28;20367;-83
2023/08/11 22:08:29;;;;;;;4.90;4.50;;;;;;;;;;10240578;28;20058;-84
2023/08/11 22:13:30;;;;;;;5.30;4.80;;;;;;;;;;10260975;28;20054;-82
2023/08/11 22:18:30;;;;;;;5.83;4.50;;;;;;;;;;10240967;28;20047;-84
2023/08/11 22:23:31;;;;;;;5.35;4.82;;;;;;;;;;10244380;28;20055;-84
2023/08/11 22:28:34;;;;;;;5.50;4.80;;;;;;;;;;10223374;28;20561;-84
2023/08/11 22:33:36;;;;;;;4.90;4.50;;;;;;;;;;10240117;28;20059;-85
2023/08/11 22:38:37;;;;;;;5.63;4.85;;;;;;;;;;10245837;28;20073;-84
2023/08/11 22:43:38;;;;;;;6.00;5.13;;;;;;;;;;10226804;28;20155;-84
2023/08/11 22:48:38;;;;;;;5.35;4.70;;;;;;;;;;10216921;28;20059;-85
2023/08/11 22:53:40;;;;;;;6.23;5.27;;;;;;;;;;10235721;28;20043;-85
2023/08/11 22:58:42;;;;;;;5.63;4.90;;;;;;;;;;10229724;28;20131;-85
2023/08/11 23:03:42;;;;;;;6.07;5.57;;;;;;;;;;10233296;28;20630;-84
2023/08/11 23:08:42;;;;;;;5.70;5.20;;;;;;;;;;10227417;28;20134;-83
2023/08/11 23:13:43;;;;;;;5.60;4.93;;;;;;;;;;10251117;28;20055;-86
2023/08/11 23:18:43;;;;;;;5.50;5.00;;;;;;;;;;10242297;28;20070;-84
2023/08/11 23:23:43;;;;;;;5.70;5.20;;;;;;;;;;10241703;28;20044;-83
2023/08/11 23:28:44;;;;;;;5.97;5.47;;;;;;;;;;10229538;28;20330;-82
2023/08/11 23:33:44;;;;;;;6.20;5.47;;;;;;;;;;10224893;28;20298;-85
2023/08/11 23:38:45;;;;;;;5.90;5.40;;;;;;;;;;10215149;28;20106;-84
2023/08/11 23:43:46;;;;;;;6.37;5.13;;;;;;;;;;10231569;28;20075;-84
2023/08/11 23:48:46;;;;;;;6.33;5.70;;;;;;;;;;10232991;28;20051;-84
2023/08/11 23:53:48;;;;;;;5.38;4.88;;;;;;;;;;10244650;28;20606;-84
2023/08/11 23:58:48;;;;;;;7.00;5.17;;;;;;;;;;10227603;28;20051;-84
